createdAt,value
2018-08-31T00:00:24.461Z,19.10
2018-08-31T00:02:55.205Z,16.00
2018-08-31T00:05:36.736Z,14.50
2018-08-31T00:08:17.128Z,17.60
2018-08-31T00:10:54.238Z,14.37
2018-08-31T00:13:23.804Z,15.27
2018-08-31T00:15:52.827Z,17.17
2018-08-31T00:18:21.380Z,16.03
2018-08-31T00:20:49.804Z,19.40
2018-08-31T00:23:18.445Z,18.17
2018-08-31T00:26:00.268Z,19.30
2018-08-31T00:28:40.134Z,18.93
2018-08-31T00:32:23.754Z,18.30
2018-08-31T00:37:42.519Z,18.87
2018-08-31T00:40:26.872Z,15.17
2018-08-31T00:45:41.560Z,18.60
2018-08-31T00:48:10.380Z,20.57
2018-08-31T00:50:38.841Z,18.67
2018-08-31T00:53:07.632Z,19.13
2018-08-31T00:55:36.116Z,18.40
2018-08-31T00:58:04.572Z,16.83
2018-08-31T01:00:33.026Z,16.17
2018-08-31T01:03:01.499Z,21.80
2018-08-31T01:05:30.069Z,16.03
2018-08-31T01:07:58.648Z,19.27
2018-08-31T01:10:27.120Z,21.40
2018-08-31T01:12:56.136Z,16.50
2018-08-31T01:15:24.573Z,19.63
2018-08-31T01:17:53.012Z,20.90
2018-08-31T01:20:22.973Z,18.63
2018-08-31T01:22:51.473Z,18.63
2018-08-31T01:25:20.048Z,19.97
2018-08-31T01:27:48.554Z,18.87
2018-08-31T01:30:17.081Z,21.43
2018-08-31T01:32:45.573Z,15.87
2018-08-31T01:35:14.153Z,16.30
2018-08-31T01:37:42.644Z,17.63
2018-08-31T01:40:11.713Z,24.03
2018-08-31T01:42:40.696Z,17.13
2018-08-31T01:45:09.252Z,17.10
2018-08-31T01:47:37.801Z,19.13
2018-08-31T01:50:06.321Z,16.27
2018-08-31T01:52:34.770Z,19.37
2018-08-31T01:55:03.330Z,17.90
2018-08-31T01:57:31.787Z,16.13
2018-08-31T02:00:00.217Z,19.53
2018-08-31T02:02:28.765Z,20.63
2018-08-31T02:04:57.261Z,19.17
2018-08-31T02:07:25.734Z,17.80
2018-08-31T02:09:54.213Z,20.50
2018-08-31T02:12:22.748Z,21.93
2018-08-31T02:14:51.280Z,16.93
2018-08-31T02:17:19.913Z,22.30
2018-08-31T02:19:48.523Z,16.83
2018-08-31T02:22:16.936Z,18.10
2018-08-31T02:24:45.497Z,18.40
2018-08-31T02:27:13.925Z,17.70
2018-08-31T02:29:42.460Z,19.80
2018-08-31T02:32:10.988Z,21.67
2018-08-31T02:34:39.425Z,20.43
2018-08-31T02:37:08.080Z,18.17
2018-08-31T02:39:36.516Z,19.20
2018-08-31T02:42:05.270Z,22.33
2018-08-31T02:44:33.775Z,20.70
2018-08-31T02:47:02.264Z,17.80
2018-08-31T02:49:30.768Z,18.47
2018-08-31T02:51:59.239Z,21.90
2018-08-31T02:54:27.750Z,20.27
2018-08-31T02:56:56.345Z,20.97
2018-08-31T02:59:24.814Z,18.43
2018-08-31T03:01:53.285Z,21.50
2018-08-31T03:04:21.842Z,20.70
2018-08-31T03:06:50.522Z,19.30
2018-08-31T03:09:19.052Z,22.33
2018-08-31T03:11:47.578Z,18.60
2018-08-31T03:14:16.061Z,21.40
2018-08-31T03:16:44.532Z,21.17
2018-08-31T03:19:13.064Z,22.07
2018-08-31T03:21:41.513Z,16.60
2018-08-31T03:24:10.020Z,24.17
2018-08-31T03:26:38.442Z,22.17
2018-08-31T03:29:06.952Z,23.33
2018-08-31T03:31:35.413Z,20.37
2018-08-31T03:34:04.068Z,20.40
2018-08-31T03:36:32.605Z,22.63
2018-08-31T03:39:01.105Z,24.63
2018-08-31T03:41:30.533Z,19.80
2018-08-31T03:43:58.969Z,25.00
2018-08-31T03:46:27.466Z,27.37
2018-08-31T03:48:55.989Z,22.37
2018-08-31T03:51:24.509Z,20.03
2018-08-31T03:53:53.044Z,20.03
2018-08-31T03:56:21.626Z,22.40
2018-08-31T03:58:50.145Z,18.67
2018-08-31T04:01:18.576Z,25.73
2018-08-31T04:03:47.033Z,24.03
2018-08-31T04:06:15.494Z,22.87
2018-08-31T04:08:43.933Z,23.70
2018-08-31T04:11:12.469Z,19.27
2018-08-31T04:13:40.923Z,19.80
2018-08-31T04:16:09.361Z,17.80
2018-08-31T04:18:37.792Z,21.53
2018-08-31T04:21:06.856Z,18.00
2018-08-31T04:23:35.318Z,24.73
2018-08-31T04:26:03.845Z,19.37
2018-08-31T04:28:32.281Z,19.20
2018-08-31T04:31:00.816Z,23.00
2018-08-31T04:33:29.305Z,19.63
2018-08-31T04:35:57.730Z,18.17
2018-08-31T04:38:26.265Z,20.90
2018-08-31T04:40:54.807Z,18.30
2018-08-31T04:43:23.356Z,20.30
2018-08-31T04:45:51.784Z,24.87
2018-08-31T04:48:20.243Z,20.20
2018-08-31T04:50:48.764Z,23.67
2018-08-31T04:53:17.214Z,22.70
2018-08-31T04:55:46.233Z,22.93
2018-08-31T04:58:14.695Z,23.53
2018-08-31T05:00:43.161Z,19.53
2018-08-31T05:03:11.772Z,23.70
2018-08-31T05:05:40.221Z,18.77
2018-08-31T05:08:08.638Z,21.93
2018-08-31T05:10:37.145Z,21.43
2018-08-31T05:13:06.520Z,24.20
2018-08-31T05:15:35.082Z,19.40
2018-08-31T05:18:03.743Z,22.53
2018-08-31T05:20:32.173Z,23.03
2018-08-31T05:23:00.648Z,21.70
2018-08-31T05:25:30.954Z,20.90
2018-08-31T05:27:59.704Z,20.93
2018-08-31T05:30:29.094Z,24.23
2018-08-31T05:32:58.556Z,23.40
2018-08-31T05:35:27.152Z,24.60
2018-08-31T05:37:55.581Z,26.27
2018-08-31T05:40:24.137Z,25.53
2018-08-31T05:42:52.613Z,27.00
2018-08-31T05:45:21.068Z,24.67
2018-08-31T05:47:49.620Z,24.10
2018-08-31T05:50:18.075Z,21.07
2018-08-31T05:52:46.565Z,25.37
2018-08-31T05:55:16.456Z,21.63
2018-08-31T05:57:45.184Z,25.30
2018-08-31T06:00:13.637Z,29.13
2018-08-31T06:02:42.152Z,30.73
2018-08-31T06:05:10.648Z,22.27
2018-08-31T06:07:39.164Z,28.47
2018-08-31T06:10:07.696Z,30.50
2018-08-31T06:12:36.270Z,25.80
2018-08-31T06:15:05.195Z,23.90
2018-08-31T06:17:33.741Z,22.40
2018-08-31T06:20:02.205Z,24.90
2018-08-31T06:22:30.673Z,25.07
2018-08-31T06:24:59.197Z,24.00
2018-08-31T06:27:27.655Z,28.30
2018-08-31T06:29:56.085Z,27.50
2018-08-31T06:32:24.681Z,26.23
2018-08-31T06:34:53.186Z,25.60
2018-08-31T06:37:22.457Z,26.27
2018-08-31T06:39:50.915Z,28.17
2018-08-31T06:42:19.472Z,24.30
2018-08-31T06:44:48.032Z,24.53
2018-08-31T06:47:16.497Z,22.90
2018-08-31T06:49:45.004Z,23.53
2018-08-31T06:52:14.419Z,24.37
2018-08-31T06:54:42.896Z,22.43
2018-08-31T06:57:11.431Z,22.60
2018-08-31T06:59:39.963Z,26.60
2018-08-31T07:02:09.141Z,27.10
2018-08-31T07:04:38.306Z,23.77
2018-08-31T07:07:06.944Z,22.90
2018-08-31T07:09:35.379Z,27.93
2018-08-31T07:12:04.041Z,29.03
2018-08-31T07:14:32.784Z,26.20
2018-08-31T07:17:01.380Z,26.73
2018-08-31T07:19:29.999Z,29.30
2018-08-31T07:21:58.348Z,34.07
2018-08-31T07:24:26.836Z,22.97
2018-08-31T07:26:55.364Z,21.87
2018-08-31T07:29:23.761Z,23.97
2018-08-31T07:31:52.197Z,25.50
2018-08-31T07:34:20.732Z,28.97
2018-08-31T07:36:49.349Z,23.40
2018-08-31T07:39:17.920Z,23.73
2018-08-31T07:41:47.058Z,23.00
2018-08-31T07:44:15.561Z,32.27
2018-08-31T07:46:44.794Z,28.23
2018-08-31T07:49:13.304Z,28.87
2018-08-31T07:51:41.745Z,26.17
2018-08-31T07:54:10.195Z,30.30
2018-08-31T07:56:38.685Z,24.13
2018-08-31T07:59:07.172Z,23.73
2018-08-31T08:01:35.703Z,22.80
2018-08-31T08:04:04.153Z,26.33
2018-08-31T08:06:33.253Z,25.67
2018-08-31T08:09:01.900Z,26.77
2018-08-31T08:11:30.381Z,25.20
2018-08-31T08:13:58.903Z,27.80
2018-08-31T08:16:27.368Z,20.33
2018-08-31T08:18:55.901Z,24.67
2018-08-31T08:21:24.903Z,22.60
2018-08-31T08:23:53.760Z,25.63
2018-08-31T08:26:22.216Z,18.87
2018-08-31T08:28:50.656Z,19.63
2018-08-31T08:31:19.105Z,21.47
2018-08-31T08:33:47.884Z,20.83
2018-08-31T08:36:16.372Z,25.80
2018-08-31T08:38:44.831Z,18.07
2018-08-31T08:41:13.308Z,19.73
2018-08-31T08:43:41.923Z,21.63
2018-08-31T08:46:10.432Z,19.77
2018-08-31T08:48:38.993Z,21.60
2018-08-31T08:51:07.445Z,22.03
2018-08-31T08:53:35.915Z,24.13
2018-08-31T08:56:04.536Z,24.83
2018-08-31T08:58:33.737Z,20.53
2018-08-31T09:01:02.209Z,26.37
2018-08-31T09:03:30.699Z,24.13
2018-08-31T09:05:59.225Z,24.10
2018-08-31T09:08:27.745Z,21.30
2018-08-31T09:10:56.317Z,18.73
2018-08-31T09:13:24.804Z,21.80
2018-08-31T09:15:53.842Z,19.30
2018-08-31T09:18:26.498Z,20.33
2018-08-31T09:20:55.677Z,23.90
2018-08-31T09:23:24.318Z,32.37
2018-08-31T09:25:53.435Z,20.17
2018-08-31T09:28:21.949Z,23.20
2018-08-31T09:30:50.432Z,20.73
2018-08-31T09:33:18.973Z,18.70
2018-08-31T09:35:47.505Z,20.80
2018-08-31T09:38:16.037Z,24.73
2018-08-31T09:40:44.469Z,19.60
2018-08-31T09:43:13.064Z,25.03
2018-08-31T09:45:41.485Z,19.20
2018-08-31T09:48:10.056Z,19.50
2018-08-31T09:50:38.608Z,29.00
2018-08-31T09:53:07.422Z,19.67
2018-08-31T09:55:35.948Z,20.17
2018-08-31T09:58:04.486Z,21.20
2018-08-31T10:00:38.165Z,24.67
2018-08-31T10:03:11.768Z,21.50
2018-08-31T10:05:40.260Z,24.70
2018-08-31T10:08:08.789Z,19.63
2018-08-31T10:10:37.278Z,22.10
2018-08-31T10:13:05.784Z,20.93
2018-08-31T10:15:34.415Z,21.67
2018-08-31T10:18:02.885Z,19.53
2018-08-31T10:20:31.356Z,24.30
2018-08-31T10:22:59.805Z,20.97
2018-08-31T10:25:28.314Z,24.57
2018-08-31T10:27:56.775Z,20.80
2018-08-31T10:30:25.285Z,20.10
2018-08-31T10:32:53.790Z,23.17
2018-08-31T10:35:22.293Z,23.20
2018-08-31T10:37:50.765Z,23.47
2018-08-31T10:40:19.541Z,22.97
2018-08-31T10:42:48.003Z,22.40
2018-08-31T10:45:16.453Z,20.87
2018-08-31T10:47:45.186Z,22.07
2018-08-31T10:50:13.719Z,21.40
2018-08-31T10:52:42.273Z,24.67
2018-08-31T10:55:10.729Z,21.40
2018-08-31T10:57:39.241Z,18.60
2018-08-31T11:00:08.234Z,19.60
2018-08-31T11:02:36.875Z,23.30
2018-08-31T11:05:05.489Z,19.27
2018-08-31T11:07:34.048Z,19.70
2018-08-31T11:10:02.626Z,22.10
2018-08-31T11:12:31.226Z,20.93
2018-08-31T11:14:59.700Z,25.10
2018-08-31T11:17:28.113Z,20.50
2018-08-31T11:19:57.194Z,22.57
2018-08-31T11:22:25.757Z,24.90
2018-08-31T11:24:54.313Z,21.83
2018-08-31T11:27:22.900Z,27.13
2018-08-31T11:29:51.404Z,26.40
2018-08-31T11:32:20.061Z,24.07
2018-08-31T11:34:48.542Z,24.20
2018-08-31T11:37:16.992Z,22.33
2018-08-31T11:39:45.457Z,27.27
2018-08-31T11:42:14.105Z,22.47
2018-08-31T11:44:42.677Z,22.93
2018-08-31T11:47:11.186Z,23.43
2018-08-31T11:49:39.694Z,28.03
2018-08-31T11:52:08.244Z,23.53
2018-08-31T11:54:37.419Z,22.70
2018-08-31T11:57:05.925Z,25.33
2018-08-31T11:59:34.385Z,23.23
2018-08-31T12:02:03.053Z,24.10
2018-08-31T12:04:31.558Z,25.60
2018-08-31T12:07:00.021Z,22.23
2018-08-31T12:09:28.540Z,22.23
2018-08-31T12:11:57.035Z,23.07
2018-08-31T12:14:25.544Z,28.53
2018-08-31T12:16:54.093Z,23.43
2018-08-31T12:19:22.560Z,23.10
2018-08-31T12:21:51.161Z,22.40
2018-08-31T12:24:19.587Z,24.67
2018-08-31T12:26:48.113Z,23.00
2018-08-31T12:29:16.626Z,23.77
2018-08-31T12:31:45.086Z,27.33
2018-08-31T12:34:14.540Z,24.83
2018-08-31T12:36:43.036Z,25.40
2018-08-31T12:39:12.061Z,23.50
2018-08-31T12:41:41.045Z,26.10
2018-08-31T12:44:09.532Z,24.00
2018-08-31T12:46:38.112Z,24.50
2018-08-31T12:49:06.699Z,23.27
2018-08-31T12:51:35.285Z,24.03
2018-08-31T12:54:03.764Z,25.80
2018-08-31T12:56:32.284Z,25.70
2018-08-31T12:59:00.829Z,24.87
2018-08-31T13:01:29.329Z,21.60
2018-08-31T13:03:57.893Z,25.77
2018-08-31T13:06:26.379Z,24.80
2018-08-31T13:08:54.982Z,25.07
2018-08-31T13:11:23.528Z,25.30
2018-08-31T13:13:52.029Z,26.37
2018-08-31T13:16:21.028Z,25.40
2018-08-31T13:18:49.636Z,28.07
2018-08-31T13:21:18.124Z,27.87
2018-08-31T13:23:47.246Z,28.23
2018-08-31T13:26:16.437Z,27.37
2018-08-31T13:28:44.953Z,26.43
2018-08-31T13:31:13.511Z,28.17
2018-08-31T13:33:42.006Z,29.87
2018-08-31T13:36:10.477Z,36.27
2018-08-31T13:38:38.919Z,30.83
2018-08-31T13:41:08.073Z,28.20
2018-08-31T13:43:36.514Z,32.53
2018-08-31T13:46:05.024Z,30.43
2018-08-31T13:48:33.602Z,33.10
2018-08-31T13:51:02.126Z,29.07
2018-08-31T13:53:30.554Z,28.13
2018-08-31T13:55:59.096Z,27.23
2018-08-31T13:58:27.683Z,30.73
2018-08-31T14:00:56.228Z,29.53
2018-08-31T14:03:24.716Z,25.93
2018-08-31T14:05:53.273Z,28.47
2018-08-31T14:08:21.963Z,26.03
2018-08-31T14:10:50.460Z,26.00
2018-08-31T14:13:18.949Z,34.07
2018-08-31T14:15:47.454Z,28.87
2018-08-31T14:18:16.016Z,28.03
2018-08-31T14:20:44.577Z,28.93
2018-08-31T14:23:13.783Z,28.43
2018-08-31T14:25:42.238Z,29.63
2018-08-31T14:28:10.785Z,24.60
2018-08-31T14:30:39.375Z,29.93
2018-08-31T14:33:08.029Z,30.23
2018-08-31T14:35:36.435Z,26.70
2018-08-31T14:38:05.590Z,27.13
2018-08-31T14:40:34.077Z,26.73
2018-08-31T14:43:03.321Z,28.20
2018-08-31T14:45:31.790Z,28.70
2018-08-31T14:48:00.284Z,35.73
2018-08-31T14:50:29.324Z,31.00
2018-08-31T14:52:57.813Z,26.93
2018-08-31T14:55:26.357Z,29.10
2018-08-31T14:57:54.804Z,33.67
2018-08-31T15:00:23.445Z,29.53
2018-08-31T15:02:52.008Z,32.03
2018-08-31T15:05:20.498Z,34.70
2018-08-31T15:07:49.025Z,32.33
2018-08-31T15:10:18.596Z,28.93
2018-08-31T15:12:47.124Z,29.40
2018-08-31T15:15:15.633Z,27.77
2018-08-31T15:17:44.242Z,33.73
2018-08-31T15:20:12.853Z,47.30
2018-08-31T15:22:41.460Z,32.13
2018-08-31T15:25:11.771Z,27.37
2018-08-31T15:27:40.857Z,29.53
2018-08-31T15:30:09.516Z,29.43
2018-08-31T15:38:25.487Z,29.47
2018-08-31T15:40:53.980Z,28.43
2018-08-31T15:43:23.459Z,26.80
2018-08-31T15:45:52.263Z,32.00
2018-08-31T15:48:20.723Z,31.73
2018-08-31T15:50:49.205Z,27.70
2018-08-31T15:53:17.634Z,32.83
2018-08-31T15:55:46.148Z,32.47
2018-08-31T15:58:17.292Z,33.87
2018-08-31T16:00:46.011Z,34.77
2018-08-31T16:03:14.465Z,39.57
2018-08-31T16:05:42.957Z,36.77
2018-08-31T16:08:12.450Z,32.17
2018-08-31T16:10:40.922Z,51.60
2018-08-31T16:13:09.380Z,98.97
2018-08-31T16:15:38.507Z,57.20
2018-08-31T16:18:07.585Z,45.07
2018-08-31T16:20:36.180Z,42.13
2018-08-31T16:23:05.390Z,43.13
2018-08-31T16:25:33.876Z,37.23
2018-08-31T16:28:02.447Z,46.50
2018-08-31T16:30:30.897Z,53.77
2018-08-31T16:32:59.403Z,62.60
2018-08-31T16:35:28.358Z,48.47
2018-08-31T16:37:56.926Z,43.17
2018-08-31T16:40:25.979Z,63.37
2018-08-31T16:42:54.488Z,50.10
2018-08-31T16:45:23.039Z,40.00
2018-08-31T16:47:51.685Z,35.83
2018-08-31T16:50:20.127Z,39.03
2018-08-31T16:52:48.687Z,32.47
2018-08-31T16:55:17.314Z,29.30
2018-08-31T16:57:45.767Z,32.33
2018-08-31T17:00:15.089Z,33.53
2018-08-31T17:02:43.810Z,34.80
2018-08-31T17:05:12.340Z,29.63
2018-08-31T17:07:41.473Z,35.13
2018-08-31T17:10:09.882Z,34.07
2018-08-31T17:12:38.337Z,30.63
2018-08-31T17:15:07.021Z,30.90
2018-08-31T17:17:35.501Z,29.10
2018-08-31T17:20:04.997Z,33.80
2018-08-31T17:22:33.503Z,33.53
2018-08-31T17:25:02.113Z,32.50
2018-08-31T17:27:35.969Z,31.03
2018-08-31T17:30:11.285Z,32.13
2018-08-31T17:32:45.110Z,32.03
2018-08-31T17:35:18.992Z,27.93
2018-08-31T17:37:47.704Z,25.77
2018-08-31T17:40:16.266Z,27.63
2018-08-31T17:42:44.713Z,28.63
2018-08-31T17:45:17.537Z,34.60
2018-08-31T17:47:46.521Z,30.70
2018-08-31T17:50:15.447Z,30.67
2018-08-31T17:52:44.240Z,29.90
2018-08-31T17:55:12.765Z,28.40
2018-08-31T17:57:41.907Z,25.70
2018-08-31T18:00:10.909Z,25.80
2018-08-31T18:02:39.340Z,26.00
2018-08-31T18:05:07.998Z,30.20
2018-08-31T18:07:36.519Z,34.23
2018-08-31T18:10:05.374Z,33.60
2018-08-31T18:12:33.865Z,36.57
2018-08-31T18:15:02.385Z,34.50
2018-08-31T18:17:31.720Z,28.70
2018-08-31T18:20:00.178Z,31.00
2018-08-31T18:22:28.649Z,34.07
2018-08-31T18:24:57.118Z,30.03
2018-08-31T18:27:25.600Z,32.87
2018-08-31T18:29:54.041Z,30.40
2018-08-31T18:32:22.962Z,32.63
2018-08-31T18:34:51.377Z,34.63
2018-08-31T18:37:19.845Z,33.07
2018-08-31T18:39:48.318Z,35.57
2018-08-31T18:42:16.812Z,34.37
2018-08-31T18:44:45.264Z,31.27
2018-08-31T18:47:13.798Z,30.07
2018-08-31T18:49:42.372Z,36.03
2018-08-31T18:52:10.935Z,38.33
2018-08-31T18:54:39.401Z,29.93
2018-08-31T18:57:08.064Z,31.17
2018-08-31T18:59:36.549Z,32.93
2018-08-31T19:02:05.088Z,28.90
2018-08-31T19:04:33.549Z,35.40
2018-08-31T19:07:02.243Z,35.00
2018-08-31T19:09:31.589Z,29.30
2018-08-31T19:12:00.212Z,29.77
2018-08-31T19:14:28.856Z,34.23
2018-08-31T19:16:57.300Z,33.00
2018-08-31T19:19:25.930Z,35.23
2018-08-31T19:21:54.379Z,33.27
2018-08-31T19:24:22.859Z,34.73
2018-08-31T19:26:51.356Z,34.03
2018-08-31T19:29:20.752Z,31.07
2018-08-31T19:31:49.378Z,30.70
2018-08-31T19:34:17.937Z,34.33
2018-08-31T19:36:46.429Z,29.83
2018-08-31T19:39:15.033Z,31.57
2018-08-31T19:41:43.670Z,29.40
2018-08-31T19:44:12.197Z,28.53
2018-08-31T19:46:40.753Z,34.83
2018-08-31T19:49:09.470Z,34.10
2018-08-31T19:51:38.070Z,32.17
2018-08-31T19:54:07.365Z,37.97
2018-08-31T19:56:35.837Z,35.83
2018-08-31T19:59:04.345Z,36.00
2018-08-31T20:01:32.932Z,32.00
2018-08-31T20:04:01.516Z,34.67
2018-08-31T20:06:30.080Z,30.47
2018-08-31T20:08:58.447Z,32.37
2018-08-31T20:11:27.029Z,25.93
2018-08-31T20:13:55.615Z,28.53
2018-08-31T20:16:24.209Z,31.80
2018-08-31T20:18:53.222Z,29.27
2018-08-31T20:21:23.036Z,29.03
2018-08-31T20:23:51.726Z,31.30
2018-08-31T20:26:20.162Z,29.90
2018-08-31T20:28:48.669Z,35.60
2018-08-31T20:31:17.123Z,33.70
2018-08-31T20:33:45.641Z,33.77
2018-08-31T20:36:14.083Z,48.10
2018-08-31T20:38:42.729Z,59.23
2018-08-31T20:41:11.197Z,43.80
2018-08-31T20:43:39.681Z,43.30
2018-08-31T20:46:08.129Z,44.60
2018-08-31T20:48:36.622Z,45.20
2018-08-31T20:51:05.270Z,49.87
2018-08-31T20:53:33.819Z,41.93
2018-08-31T20:56:03.223Z,39.27
2018-08-31T20:58:31.964Z,36.67
2018-08-31T21:01:01.066Z,41.40
2018-08-31T21:03:29.539Z,33.40
2018-08-31T21:05:58.387Z,38.73
2018-08-31T21:08:26.941Z,36.50
2018-08-31T21:10:55.432Z,35.47
2018-08-31T21:13:24.137Z,41.30
2018-08-31T21:15:52.661Z,33.20
2018-08-31T21:18:22.217Z,37.17
2018-08-31T21:20:51.557Z,36.20
2018-08-31T21:23:20.189Z,37.07
2018-08-31T21:25:48.632Z,35.33
2018-08-31T21:28:17.118Z,43.47
2018-08-31T21:30:45.572Z,32.73
2018-08-31T21:33:14.036Z,35.27
2018-08-31T21:35:42.485Z,32.37
2018-08-31T21:38:10.990Z,31.40
2018-08-31T21:40:39.469Z,39.60
2018-08-31T21:43:07.946Z,33.80
2018-08-31T21:45:36.522Z,35.27
2018-08-31T21:48:05.418Z,32.67
2018-08-31T21:50:34.149Z,34.73
2018-08-31T21:53:02.708Z,33.90
2018-08-31T21:55:31.175Z,33.30
2018-08-31T21:57:59.652Z,37.93
2018-08-31T22:00:28.145Z,34.30
2018-08-31T22:02:56.595Z,36.77
2018-08-31T22:05:25.168Z,34.13
2018-08-31T22:07:53.678Z,36.83
2018-08-31T22:10:22.165Z,33.13
2018-08-31T22:12:50.617Z,35.33
2018-08-31T22:15:25.863Z,36.80
2018-08-31T22:17:55.312Z,37.63
2018-08-31T22:20:24.353Z,37.20
2018-08-31T22:22:54.037Z,39.30
2018-08-31T22:25:23.368Z,37.30
2018-08-31T22:27:51.843Z,32.93
2018-08-31T22:30:20.340Z,31.00
2018-08-31T22:32:48.828Z,34.63
2018-08-31T22:35:17.365Z,37.83
2018-08-31T22:37:45.812Z,33.37
2018-08-31T22:40:14.360Z,31.90
2018-08-31T22:42:42.818Z,38.37
2018-08-31T22:45:14.573Z,37.97
2018-08-31T22:47:44.272Z,33.90
2018-08-31T22:50:13.596Z,36.30
2018-08-31T22:52:42.064Z,31.97
2018-08-31T22:55:11.149Z,40.83
2018-08-31T22:57:39.675Z,41.07
2018-08-31T23:00:08.159Z,32.33
2018-08-31T23:02:36.628Z,32.57
2018-08-31T23:05:05.232Z,38.97
2018-08-31T23:07:38.926Z,38.63
2018-08-31T23:10:07.810Z,41.00
2018-08-31T23:12:36.295Z,40.77
2018-08-31T23:15:04.819Z,38.10
2018-08-31T23:17:33.315Z,40.10
2018-08-31T23:20:01.852Z,41.97
2018-08-31T23:22:30.880Z,42.97
2018-08-31T23:25:01.338Z,44.40
2018-08-31T23:27:30.677Z,48.63
2018-08-31T23:29:59.227Z,43.30
2018-08-31T23:32:27.828Z,39.60
2018-08-31T23:34:56.473Z,42.63
2018-08-31T23:37:25.000Z,39.97
2018-08-31T23:39:53.490Z,45.03
2018-08-31T23:42:22.033Z,48.23
2018-08-31T23:44:50.497Z,53.43
2018-08-31T23:47:18.986Z,50.50
2018-08-31T23:49:47.437Z,46.83
2018-08-31T23:52:15.867Z,52.13
2018-08-31T23:54:44.372Z,55.23
2018-08-31T23:57:12.817Z,45.73
2018-08-31T23:59:41.273Z,45.20
